createdAt,value
2022-10-30T00:01:36.261Z,16.9
2022-10-30T00:03:40.414Z,16.8
2022-10-30T00:05:41.534Z,16.8
2022-10-30T00:09:43.766Z,16.9
2022-10-30T00:11:44.885Z,16.9
2022-10-30T00:13:45.968Z,16.9
2022-10-30T00:15:47.090Z,16.9
2022-10-30T00:17:51.380Z,16.9
2022-10-30T00:19:52.484Z,16.9
2022-10-30T00:21:53.611Z,16.9
2022-10-30T00:23:54.720Z,16.7
2022-10-30T00:25:55.837Z,16.7
2022-10-30T00:27:56.937Z,16.6
2022-10-30T00:29:58.040Z,16.5
2022-10-30T00:32:02.356Z,16.6
2022-10-30T00:34:03.449Z,16.6
2022-10-30T00:36:04.568Z,16.5
2022-10-30T00:38:32.574Z,16.5
2022-10-30T00:40:33.849Z,16.6
2022-10-30T00:42:34.793Z,16.6
2022-10-30T00:44:39.085Z,16.6
2022-10-30T00:46:40.194Z,16.6
2022-10-30T00:48:41.311Z,16.6
2022-10-30T00:50:42.424Z,16.7
2022-10-30T00:52:43.545Z,16.6
2022-10-30T00:56:45.749Z,16.5
2022-10-30T00:58:50.050Z,16.6
2022-10-30T01:08:59.049Z,16.5
2022-10-30T01:19:04.383Z,16.5
2022-10-30T01:21:05.480Z,16.5
2022-10-30T01:23:06.617Z,16.4
2022-10-30T01:25:07.723Z,16.3
2022-10-30T01:27:12.036Z,16.3
2022-10-30T01:29:13.136Z,16.3
2022-10-30T01:31:14.265Z,16.3
2022-10-30T01:32:16.410Z,16.1
2022-10-30T01:34:17.518Z,16.1
2022-10-30T01:36:18.641Z,16.2
2022-10-30T01:38:19.737Z,16.1
2022-10-30T01:40:24.073Z,16
2022-10-30T01:42:25.174Z,15.9
2022-10-30T01:44:26.291Z,15.9
2022-10-30T01:46:27.410Z,16
2022-10-30T01:52:31.419Z,15.8
2022-10-30T01:54:35.060Z,15.8
2022-10-30T01:56:37.721Z,15.7
2022-10-30T01:58:38.790Z,15.7
2022-10-30T02:00:39.914Z,15.6
2022-10-30T02:02:41.130Z,15.5
2022-10-30T02:04:42.147Z,15.4
2022-10-30T02:06:43.279Z,15.4
2022-10-30T02:08:47.550Z,15.2
2022-10-30T02:10:48.678Z,15.2
2022-10-30T02:12:49.801Z,15.2
2022-10-30T02:14:50.937Z,15.1
2022-10-30T02:16:52.047Z,15.1
2022-10-30T02:18:53.186Z,15.1
2022-10-30T02:20:54.280Z,15.1
2022-10-30T02:22:59.554Z,15
2022-10-30T02:24:59.708Z,15
2022-10-30T02:27:00.822Z,15
2022-10-30T02:28:02.961Z,15
2022-10-30T02:34:06.331Z,14.8
2022-10-30T02:36:10.623Z,14.7
2022-10-30T02:38:11.746Z,14.7
2022-10-30T02:40:12.868Z,14.7
2022-10-30T02:42:14.042Z,14.5
2022-10-30T02:44:15.176Z,14.5
2022-10-30T02:46:16.285Z,14.4
2022-10-30T02:48:17.411Z,14.5
2022-10-30T02:50:21.728Z,14.4
2022-10-30T02:56:25.112Z,14.5
2022-10-30T02:58:26.223Z,14.5
2022-10-30T03:00:27.353Z,14.5
2022-10-30T03:04:32.790Z,14.5
2022-10-30T03:06:33.909Z,14.6
2022-10-30T03:08:35.042Z,14.5
2022-10-30T03:10:36.177Z,14.5
2022-10-30T03:12:37.299Z,14.5
2022-10-30T03:18:43.910Z,14.3
2022-10-30T03:20:44.982Z,14.3
2022-10-30T03:22:46.141Z,14.3
2022-10-30T03:23:48.381Z,14.3
2022-10-30T03:25:49.516Z,14.3
2022-10-30T03:40:00.620Z,14.4
2022-10-30T03:42:01.771Z,14.5
2022-10-30T03:44:02.919Z,14.5
2022-10-30T03:50:09.478Z,14.5
2022-10-30T03:52:10.598Z,14.4
2022-10-30T03:54:11.725Z,14.4
2022-10-30T03:56:12.990Z,14.4
2022-10-30T03:58:14.086Z,14.3
2022-10-30T04:00:18.396Z,14.3
2022-10-30T04:04:20.484Z,14.2
2022-10-30T04:06:21.590Z,14.2
2022-10-30T04:08:22.744Z,14.1
2022-10-30T04:10:24.166Z,14.1
2022-10-30T04:12:25.028Z,14.1
2022-10-30T04:14:29.354Z,14.1
2022-10-30T04:16:30.474Z,14.1
2022-10-30T04:18:31.609Z,14.1
2022-10-30T04:20:53.820Z,14
2022-10-30T04:27:00.386Z,14
2022-10-30T04:29:01.530Z,14
2022-10-30T04:31:02.687Z,14
2022-10-30T04:33:03.822Z,14
2022-10-30T04:35:04.934Z,13.9
2022-10-30T04:37:06.087Z,14
2022-10-30T04:39:07.321Z,13.9
2022-10-30T04:41:11.599Z,13.9
2022-10-30T04:43:12.735Z,13.9
2022-10-30T04:45:15.278Z,13.9
2022-10-30T04:47:15.009Z,13.8
2022-10-30T04:49:16.269Z,13.8
2022-10-30T04:51:17.411Z,13.7
2022-10-30T04:53:18.550Z,13.7
2022-10-30T04:55:23.090Z,13.7
2022-10-30T04:57:24.323Z,13.6
2022-10-30T04:59:25.447Z,13.6
2022-10-30T05:01:26.756Z,13.6
2022-10-30T05:03:27.835Z,13.5
2022-10-30T05:05:28.992Z,13.5
2022-10-30T05:07:30.224Z,13.4
2022-10-30T05:09:34.729Z,13.5
2022-10-30T05:11:35.981Z,13.5
2022-10-30T05:13:37.106Z,13.6
2022-10-30T05:14:39.374Z,13.6
2022-10-30T05:16:40.593Z,13.5
2022-10-30T05:18:41.830Z,13.5
2022-10-30T05:20:43.084Z,13.5
2022-10-30T05:22:47.592Z,13.6
2022-10-30T05:24:48.829Z,13.6
2022-10-30T05:26:49.962Z,13.6
2022-10-30T05:28:51.094Z,13.6
2022-10-30T05:30:52.246Z,13.6
2022-10-30T05:32:53.478Z,13.6
2022-10-30T05:34:54.705Z,13.6
2022-10-30T05:36:59.036Z,13.5
2022-10-30T05:39:00.163Z,13.5
2022-10-30T05:41:01.304Z,13.4
2022-10-30T05:43:02.567Z,13.4
2022-10-30T05:45:03.686Z,13.4
2022-10-30T05:47:04.920Z,13.3
2022-10-30T05:49:06.177Z,13.3
2022-10-30T05:51:10.655Z,13.3
2022-10-30T05:53:11.822Z,13.3
2022-10-30T05:55:13.042Z,13.3
2022-10-30T05:57:14.302Z,13.3
2022-10-30T05:59:15.514Z,13.2
2022-10-30T06:01:16.876Z,13.2
2022-10-30T06:07:23.787Z,13.2
2022-10-30T06:10:27.282Z,13.1
2022-10-30T06:12:28.555Z,13
2022-10-30T06:18:35.531Z,13
2022-10-30T06:20:36.784Z,13
2022-10-30T06:22:38.018Z,13.1
2022-10-30T06:24:39.270Z,13.1
2022-10-30T06:26:40.500Z,13.1
2022-10-30T06:28:41.759Z,13.1
2022-10-30T06:30:43.015Z,13
2022-10-30T06:32:47.544Z,13.1
2022-10-30T06:34:48.774Z,13.1
2022-10-30T06:36:50.070Z,13.1
2022-10-30T06:38:51.251Z,13.1
2022-10-30T06:40:52.479Z,13.1
2022-10-30T06:42:53.756Z,13.1
2022-10-30T06:44:55.009Z,13.1
2022-10-30T06:46:59.503Z,13.1
2022-10-30T06:49:00.735Z,13
2022-10-30T06:51:01.998Z,13
2022-10-30T06:53:03.225Z,13
2022-10-30T06:55:04.486Z,12.9
2022-10-30T06:57:05.726Z,13
2022-10-30T06:59:07.000Z,13.1
2022-10-30T07:01:11.524Z,13.1
2022-10-30T07:03:12.751Z,13.1
2022-10-30T07:05:14.004Z,13
2022-10-30T07:06:16.248Z,13
2022-10-30T07:08:17.524Z,13
2022-10-30T07:10:18.716Z,13
2022-10-30T07:12:19.967Z,13
2022-10-30T07:14:24.456Z,13.1
2022-10-30T07:16:25.712Z,13.1
2022-10-30T07:18:27.000Z,13.1
2022-10-30T07:20:28.233Z,13.1
2022-10-30T07:22:29.468Z,13.2
2022-10-30T07:24:30.696Z,13.3
2022-10-30T07:26:31.950Z,13.4
2022-10-30T07:28:36.457Z,13.4
2022-10-30T07:30:37.705Z,13.4
2022-10-30T07:32:38.962Z,13.4
2022-10-30T07:36:41.415Z,13.4
2022-10-30T07:38:42.663Z,13.4
2022-10-30T07:40:43.923Z,13.5
2022-10-30T07:44:49.683Z,13.6
2022-10-30T07:46:52.459Z,13.7
2022-10-30T07:48:53.648Z,13.8
2022-10-30T07:50:54.864Z,13.9
2022-10-30T07:52:56.116Z,13.9
2022-10-30T07:54:57.365Z,14
2022-10-30T07:57:01.767Z,14.1
2022-10-30T07:59:02.976Z,14.1
2022-10-30T08:01:04.276Z,14.2
2022-10-30T08:03:32.427Z,14.3
2022-10-30T08:05:33.551Z,14.3
2022-10-30T08:07:34.696Z,14.4
2022-10-30T08:09:39.113Z,14.4
2022-10-30T08:11:40.256Z,14.5
2022-10-30T08:13:41.399Z,14.5
2022-10-30T08:15:42.638Z,14.6
2022-10-30T08:17:43.803Z,14.7
2022-10-30T08:19:44.923Z,14.7
2022-10-30T08:21:46.153Z,14.7
2022-10-30T08:23:50.451Z,14.8
2022-10-30T08:27:52.717Z,14.9
2022-10-30T08:29:53.834Z,15
2022-10-30T08:31:54.945Z,15.1
2022-10-30T08:33:56.103Z,15.1
2022-10-30T08:35:57.213Z,15.2
2022-10-30T08:38:01.966Z,15.2
2022-10-30T08:40:02.647Z,15.2
2022-10-30T08:42:03.769Z,15.3
2022-10-30T08:44:04.915Z,15.4
2022-10-30T08:46:06.022Z,15.4
2022-10-30T08:48:07.133Z,15.6
2022-10-30T08:50:08.350Z,15.7
2022-10-30T08:52:12.566Z,15.8
2022-10-30T08:54:13.685Z,15.8
2022-10-30T08:56:14.824Z,15.9
2022-10-30T08:57:17.085Z,15.9
2022-10-30T08:59:21.174Z,16
2022-10-30T09:01:19.481Z,16.2
2022-10-30T09:03:20.455Z,16.4
2022-10-30T09:05:24.748Z,16.6
2022-10-30T09:11:28.125Z,17.8
2022-10-30T09:13:29.219Z,19.8
2022-10-30T09:15:30.355Z,21.9
2022-10-30T09:23:37.958Z,24.2
2022-10-30T09:25:39.058Z,25.1
2022-10-30T09:27:40.161Z,26.3
2022-10-30T09:29:41.258Z,24.5
2022-10-30T09:31:42.369Z,23.7
2022-10-30T09:33:46.690Z,23.4
2022-10-30T09:35:47.742Z,23.3
2022-10-30T09:37:48.835Z,24
2022-10-30T09:39:49.931Z,25.1
2022-10-30T09:41:51.139Z,25.3
2022-10-30T09:43:52.093Z,25.3
2022-10-30T09:45:53.176Z,24.1
2022-10-30T09:47:57.713Z,24.1
2022-10-30T09:49:58.503Z,24.1
2022-10-30T09:51:59.574Z,24.7
2022-10-30T10:01:09.172Z,25.7
2022-10-30T10:05:11.223Z,25.4
2022-10-30T10:07:12.272Z,26.1
2022-10-30T10:09:13.308Z,26
2022-10-30T10:11:14.343Z,26
2022-10-30T10:13:15.406Z,26.2
2022-10-30T10:15:19.625Z,25.3
2022-10-30T10:17:20.669Z,25.7
2022-10-30T10:19:21.701Z,26.2
2022-10-30T10:21:22.792Z,26.4
2022-10-30T10:23:23.793Z,26.1
2022-10-30T10:25:24.823Z,26.2
2022-10-30T10:27:25.836Z,26.9
2022-10-30T10:29:30.047Z,26.3
2022-10-30T10:31:31.091Z,25.9
2022-10-30T10:33:32.093Z,26
2022-10-30T10:35:33.102Z,25.6
2022-10-30T10:37:34.102Z,25.9
2022-10-30T10:39:35.115Z,26.4
2022-10-30T10:41:36.123Z,25.5
2022-10-30T10:43:40.339Z,22.7
2022-10-30T10:45:41.361Z,22.5
2022-10-30T10:47:42.352Z,22
2022-10-30T10:48:44.497Z,21.9
2022-10-30T10:50:45.484Z,22.2
2022-10-30T10:52:46.475Z,23.1
2022-10-30T10:54:47.485Z,23.3
2022-10-30T10:56:51.715Z,23.1
2022-10-30T10:58:52.719Z,23.1
2022-10-30T11:00:53.730Z,23.6
2022-10-30T11:02:54.817Z,24.1
2022-10-30T11:04:55.757Z,23.8
2022-10-30T11:06:56.769Z,23.5
2022-10-30T11:08:57.772Z,23.2
2022-10-30T11:11:01.996Z,21.6
2022-10-30T11:13:02.995Z,21.3
2022-10-30T11:15:04.027Z,21.2
2022-10-30T11:17:05.022Z,21.3
2022-10-30T11:19:06.047Z,20.9
2022-10-30T11:21:07.054Z,20.8
2022-10-30T11:23:08.070Z,21
2022-10-30T11:25:12.312Z,20.9
2022-10-30T11:27:13.341Z,20.9
2022-10-30T11:29:14.356Z,21
2022-10-30T11:31:15.389Z,20.8
2022-10-30T11:33:16.421Z,20.8
2022-10-30T11:35:17.453Z,20.8
2022-10-30T11:37:18.458Z,20.9
2022-10-30T11:39:22.700Z,20.9
2022-10-30T11:41:23.733Z,20.9
2022-10-30T11:43:24.766Z,20.9
2022-10-30T11:45:52.590Z,21
2022-10-30T11:47:55.095Z,21
2022-10-30T11:49:54.665Z,21.1
2022-10-30T11:51:58.892Z,21.1
2022-10-30T11:53:59.935Z,21.3
2022-10-30T12:00:05.612Z,21.5
2022-10-30T12:04:05.108Z,21.6
2022-10-30T12:06:09.326Z,21.5
2022-10-30T12:08:10.383Z,21.4
2022-10-30T12:10:11.389Z,21.4
2022-10-30T12:12:12.406Z,21.4
2022-10-30T12:14:13.424Z,21.4
2022-10-30T12:16:14.456Z,21.3
2022-10-30T12:18:15.514Z,21.2
2022-10-30T12:20:19.738Z,21.1
2022-10-30T12:22:20.765Z,21.2
2022-10-30T12:24:21.809Z,21.2
2022-10-30T12:26:22.828Z,21.1
2022-10-30T12:28:23.846Z,21
2022-10-30T12:30:24.875Z,21.1
2022-10-30T12:32:25.908Z,21.1
2022-10-30T12:34:30.164Z,21.3
2022-10-30T12:36:31.178Z,21.4
2022-10-30T12:38:32.211Z,21.5
2022-10-30T12:39:34.337Z,21.4
2022-10-30T12:43:36.418Z,21.5
2022-10-30T12:45:37.438Z,21.6
2022-10-30T12:47:41.678Z,21.5
2022-10-30T12:49:42.713Z,21.5
2022-10-30T12:51:43.748Z,21.4
2022-10-30T12:53:44.764Z,21.4
2022-10-30T12:57:46.853Z,21.4
2022-10-30T12:59:47.857Z,21.3
2022-10-30T13:03:53.148Z,21.2
2022-10-30T13:05:54.192Z,21
2022-10-30T13:07:55.207Z,20.9
2022-10-30T13:11:57.302Z,20.8
2022-10-30T13:13:58.347Z,20.8
2022-10-30T13:16:02.586Z,20.8
2022-10-30T13:18:03.626Z,20.8
2022-10-30T13:20:04.654Z,20.8
2022-10-30T13:22:05.692Z,20.7
2022-10-30T13:24:06.747Z,20.7
2022-10-30T13:26:07.776Z,20.7
2022-10-30T13:28:08.829Z,20.7
2022-10-30T13:30:13.067Z,20.7
2022-10-30T13:32:14.127Z,20.7
2022-10-30T13:34:15.152Z,20.7
2022-10-30T13:35:18.817Z,20.7
2022-10-30T13:37:19.817Z,20.6
2022-10-30T13:39:20.847Z,20.6
2022-10-30T13:41:21.921Z,20.6
2022-10-30T13:43:26.163Z,20.8
2022-10-30T13:45:27.210Z,20.8
2022-10-30T13:47:28.239Z,20.8
2022-10-30T13:49:29.302Z,20.8
2022-10-30T13:51:30.334Z,20.9
2022-10-30T13:53:31.391Z,21.1
2022-10-30T13:55:32.421Z,21.2
2022-10-30T13:57:36.666Z,21.2
2022-10-30T13:59:37.726Z,21.1
2022-10-30T14:01:38.919Z,21.1
2022-10-30T14:03:39.805Z,21.1
2022-10-30T14:09:42.918Z,20.8
2022-10-30T14:11:47.167Z,20.5
2022-10-30T14:13:48.201Z,20.5
2022-10-30T14:15:49.253Z,20.4
2022-10-30T14:17:50.310Z,20.3
2022-10-30T14:19:51.360Z,20.3
2022-10-30T14:21:52.392Z,20.3
2022-10-30T14:23:53.455Z,20.2
2022-10-30T14:25:57.702Z,20.1
2022-10-30T14:27:59.105Z,20.1
2022-10-30T14:29:59.807Z,20.1
2022-10-30T14:33:02.981Z,20
2022-10-30T14:35:04.029Z,20
2022-10-30T14:37:05.109Z,19.9
2022-10-30T14:45:12.517Z,19.8
2022-10-30T14:53:19.951Z,19.8
2022-10-30T14:57:22.095Z,19.7
2022-10-30T15:01:24.420Z,19.7
2022-10-30T15:03:25.284Z,19.7
2022-10-30T15:05:26.390Z,19.7
2022-10-30T15:07:30.606Z,19.7
2022-10-30T15:09:31.652Z,19.7
2022-10-30T15:11:32.721Z,19.7
2022-10-30T15:13:33.798Z,19.6
2022-10-30T15:15:34.866Z,19.6
2022-10-30T15:17:35.924Z,19.6
2022-10-30T15:19:36.995Z,19.6
2022-10-30T15:21:41.271Z,19.5
2022-10-30T15:23:42.317Z,19.5
2022-10-30T15:25:43.393Z,19.5
2022-10-30T15:28:11.414Z,19.3
2022-10-30T15:30:12.382Z,19.3
2022-10-30T15:32:13.465Z,19.3
2022-10-30T15:34:17.726Z,19.2
2022-10-30T15:38:19.878Z,19.1
2022-10-30T15:40:20.946Z,19.1
2022-10-30T15:42:22.028Z,19
2022-10-30T15:44:23.090Z,19
2022-10-30T15:46:24.163Z,18.9
2022-10-30T15:48:28.437Z,18.7
2022-10-30T15:50:29.531Z,18.7
2022-10-30T15:52:30.609Z,18.7
2022-10-30T15:54:31.689Z,18.6
2022-10-30T15:56:32.774Z,18.6
2022-10-30T15:58:33.868Z,18.6
2022-10-30T16:00:34.943Z,18.5
2022-10-30T16:02:39.313Z,18.5
2022-10-30T16:04:40.290Z,18.5
2022-10-30T16:06:41.381Z,18.5
2022-10-30T16:08:42.473Z,18.4
2022-10-30T16:10:43.545Z,18.4
2022-10-30T16:12:44.630Z,18.3
2022-10-30T16:14:45.728Z,18.3
2022-10-30T16:16:50.000Z,18.2
2022-10-30T16:18:51.079Z,18.2
2022-10-30T16:20:52.183Z,18.1
2022-10-30T16:21:54.306Z,18
2022-10-30T16:25:56.481Z,18
2022-10-30T16:27:57.898Z,17.9
2022-10-30T16:30:02.010Z,17.8
2022-10-30T16:32:03.179Z,17.8
2022-10-30T16:34:04.041Z,17.8
2022-10-30T16:36:06.135Z,17.8
2022-10-30T16:38:06.229Z,17.7
2022-10-30T16:40:07.320Z,17.7
2022-10-30T16:42:08.420Z,17.7
2022-10-30T16:44:12.701Z,17.7
2022-10-30T16:46:13.922Z,17.7
2022-10-30T16:48:14.944Z,17.6
2022-10-30T16:50:15.993Z,17.6
2022-10-30T16:52:17.071Z,17.5
2022-10-30T16:54:18.165Z,17.5
2022-10-30T16:56:19.263Z,17.5
2022-10-30T16:58:23.554Z,17.5
2022-10-30T17:00:27.305Z,17.5
2022-10-30T17:02:25.818Z,17.4
2022-10-30T17:04:26.837Z,17.4
2022-10-30T17:06:27.912Z,17.3
2022-10-30T17:08:29.012Z,17.3
2022-10-30T17:10:30.137Z,17.3
2022-10-30T17:12:34.377Z,17.3
2022-10-30T17:14:35.467Z,17.3
2022-10-30T17:16:36.576Z,17.3
2022-10-30T17:19:39.778Z,17.3
2022-10-30T17:21:40.887Z,17.3
2022-10-30T17:23:41.988Z,17.3
2022-10-30T17:25:46.255Z,17.3
2022-10-30T17:27:47.585Z,17.3
2022-10-30T17:29:48.443Z,17.3
2022-10-30T17:31:49.552Z,17.3
2022-10-30T17:33:50.612Z,17.3
2022-10-30T17:35:51.729Z,17.3
2022-10-30T17:37:52.820Z,17.3
2022-10-30T17:39:57.095Z,17.3
2022-10-30T17:41:58.182Z,17.3
2022-10-30T17:43:59.270Z,17.3
2022-10-30T17:46:00.368Z,17.2
2022-10-30T17:48:02.080Z,17.3
2022-10-30T17:50:02.558Z,17.2
2022-10-30T17:54:07.931Z,17.1
2022-10-30T17:56:09.023Z,17.1
2022-10-30T17:58:10.115Z,17.1
2022-10-30T18:00:11.198Z,17.1
2022-10-30T18:02:12.359Z,17.1
2022-10-30T18:04:19.602Z,17
2022-10-30T18:06:14.473Z,17.1
2022-10-30T18:10:19.836Z,17
2022-10-30T18:15:24.178Z,16.9
2022-10-30T18:17:25.271Z,16.9
2022-10-30T18:19:26.371Z,16.8
2022-10-30T18:21:30.656Z,16.8
2022-10-30T18:23:50.777Z,16.8
2022-10-30T18:25:32.835Z,16.8
2022-10-30T18:27:33.947Z,16.8
2022-10-30T18:29:35.043Z,16.7
2022-10-30T18:31:36.167Z,16.7
2022-10-30T18:33:37.265Z,16.7
2022-10-30T18:35:41.551Z,16.6
2022-10-30T18:37:42.638Z,16.6
2022-10-30T18:39:43.767Z,16.6
2022-10-30T18:41:44.854Z,16.5
2022-10-30T18:43:47.157Z,16.6
2022-10-30T18:45:47.055Z,16.5
2022-10-30T18:47:48.154Z,16.5
2022-10-30T18:49:52.458Z,16.4
2022-10-30T18:51:53.567Z,16.4
2022-10-30T18:53:54.640Z,16.4
2022-10-30T18:55:55.755Z,16.3
2022-10-30T18:57:57.326Z,16.3
2022-10-30T18:59:57.970Z,16.3
2022-10-30T19:01:59.264Z,16.2
2022-10-30T19:04:03.373Z,16.2
2022-10-30T19:06:04.496Z,16.2
2022-10-30T19:08:05.572Z,16.2
2022-10-30T19:10:33.586Z,16.1
2022-10-30T19:12:38.418Z,16.1
2022-10-30T19:14:35.808Z,16.1
2022-10-30T19:16:40.096Z,16.1
2022-10-30T19:18:41.202Z,16
2022-10-30T19:21:03.231Z,16
2022-10-30T19:22:43.452Z,16
2022-10-30T19:24:46.077Z,16
2022-10-30T19:26:47.146Z,16
2022-10-30T19:28:48.313Z,15.9
2022-10-30T19:30:52.559Z,15.9
2022-10-30T19:32:53.677Z,15.9
2022-10-30T19:34:54.786Z,15.9
2022-10-30T19:36:55.886Z,15.8
2022-10-30T19:38:57.018Z,15.8
2022-10-30T19:40:58.248Z,15.8
2022-10-30T19:45:03.523Z,15.7
2022-10-30T19:49:05.750Z,15.7
2022-10-30T19:51:06.893Z,15.6
2022-10-30T19:53:08.028Z,15.6
2022-10-30T19:55:09.139Z,15.6
2022-10-30T19:57:10.354Z,15.5
2022-10-30T19:59:14.568Z,15.5
2022-10-30T20:01:16.157Z,15.5
2022-10-30T20:03:16.807Z,15.5
2022-10-30T20:04:18.952Z,15.4
2022-10-30T20:06:20.061Z,15.4
2022-10-30T20:08:21.192Z,15.4
2022-10-30T20:10:22.299Z,15.3
2022-10-30T20:12:26.617Z,15.3
2022-10-30T20:14:27.716Z,15.3
2022-10-30T20:16:28.870Z,15.3
2022-10-30T20:24:33.344Z,15.2
2022-10-30T20:26:37.639Z,15.1
2022-10-30T20:28:38.778Z,15.1
2022-10-30T20:30:39.898Z,15.1
2022-10-30T20:32:41.032Z,15.1
2022-10-30T20:34:42.134Z,15.1
2022-10-30T20:36:43.249Z,15.1
2022-10-30T20:38:44.386Z,15
2022-10-30T20:40:48.677Z,15
2022-10-30T20:42:49.812Z,15
2022-10-30T20:44:50.933Z,15
2022-10-30T20:46:52.057Z,15
2022-10-30T20:48:53.178Z,15
2022-10-30T20:50:54.309Z,15
2022-10-30T20:52:55.794Z,15
2022-10-30T20:54:59.801Z,15
2022-10-30T20:57:00.891Z,15
2022-10-30T20:59:02.050Z,15
2022-10-30T21:00:04.189Z,14.9
2022-10-30T21:02:05.422Z,14.9
2022-10-30T21:04:06.480Z,14.9
2022-10-30T21:06:07.589Z,14.9
2022-10-30T21:08:11.905Z,14.9
2022-10-30T21:10:13.013Z,14.9
2022-10-30T21:12:14.151Z,14.8
2022-10-30T21:14:15.244Z,14.9
2022-10-30T21:16:16.398Z,14.8
2022-10-30T21:18:17.538Z,14.8
2022-10-30T21:20:18.659Z,14.8
2022-10-30T21:22:22.952Z,14.7
2022-10-30T21:24:24.075Z,14.7
2022-10-30T21:26:25.201Z,14.7
2022-10-30T21:28:26.318Z,14.7
2022-10-30T21:30:27.425Z,14.7
2022-10-30T21:32:28.547Z,14.7
2022-10-30T21:34:29.695Z,14.6
2022-10-30T21:36:33.986Z,14.6
2022-10-30T21:38:35.092Z,14.6
2022-10-30T21:40:36.203Z,14.6
2022-10-30T21:42:37.343Z,14.6
2022-10-30T21:44:38.457Z,14.5
2022-10-30T21:46:39.606Z,14.5
2022-10-30T21:48:40.729Z,14.5
2022-10-30T21:50:45.040Z,14.4
2022-10-30T21:52:46.166Z,14.4
2022-10-30T21:54:47.303Z,14.4
2022-10-30T21:55:49.461Z,14.4
2022-10-30T21:57:50.603Z,14.3
2022-10-30T21:59:51.729Z,14.3
2022-10-30T22:01:52.883Z,14.3
2022-10-30T22:03:57.144Z,14.3
2022-10-30T22:05:58.272Z,14.3
2022-10-30T22:07:59.655Z,14.3
2022-10-30T22:10:00.529Z,14.3
2022-10-30T22:12:01.690Z,14.3
2022-10-30T22:14:02.819Z,14.2
2022-10-30T22:16:03.947Z,14.2
2022-10-30T22:18:08.250Z,14.2
2022-10-30T22:20:09.374Z,14.2
2022-10-30T22:22:10.529Z,14.2
2022-10-30T22:24:11.645Z,14.2
2022-10-30T22:26:12.797Z,14.1
2022-10-30T22:28:13.996Z,14.1
2022-10-30T22:30:15.067Z,14.1
2022-10-30T22:32:19.371Z,14
2022-10-30T22:34:20.508Z,14
2022-10-30T22:36:21.641Z,13.9
2022-10-30T22:38:22.790Z,14
2022-10-30T22:40:23.943Z,13.9
2022-10-30T22:42:25.170Z,13.9
2022-10-30T22:44:26.410Z,13.9
2022-10-30T22:46:30.703Z,13.8
2022-10-30T22:48:31.856Z,13.8
2022-10-30T22:50:32.992Z,13.7
2022-10-30T22:53:01.152Z,13.7
2022-10-30T22:57:03.428Z,13.6
2022-10-30T22:59:07.732Z,13.5
2022-10-30T23:01:08.883Z,13.5
2022-10-30T23:09:13.671Z,13.4
2022-10-30T23:21:23.863Z,13.3
2022-10-30T23:27:30.740Z,13.2
2022-10-30T23:29:31.890Z,13.2
2022-10-30T23:31:33.136Z,13.2
2022-10-30T23:33:34.393Z,13.2
2022-10-30T23:35:35.537Z,13.1
2022-10-30T23:37:36.773Z,13.1
2022-10-30T23:39:38.013Z,13.1
2022-10-30T23:41:42.525Z,13.1
2022-10-30T23:43:43.751Z,13.1
2022-10-30T23:45:44.996Z,13.1
2022-10-30T23:46:47.263Z,13.1
2022-10-30T23:48:48.522Z,13
2022-10-30T23:50:49.736Z,13
2022-10-30T23:52:50.979Z,13
2022-10-30T23:54:55.490Z,13
2022-10-30T23:56:56.765Z,12.9
2022-10-30T23:58:58.002Z,12.9
